createdAt,value
2018-07-23T00:00:24.201Z,4.97
2018-07-23T00:02:51.529Z,9.47
2018-07-23T00:05:19.121Z,3.00
2018-07-23T00:07:46.280Z,3.83
2018-07-23T00:10:13.453Z,3.47
2018-07-23T00:12:41.001Z,4.27
2018-07-23T00:15:08.517Z,3.53
2018-07-23T00:17:35.895Z,3.80
2018-07-23T00:20:03.793Z,3.73
2018-07-23T00:22:30.979Z,3.90
2018-07-23T00:24:58.166Z,5.10
2018-07-23T00:27:25.673Z,4.27
2018-07-23T00:29:52.854Z,4.63
2018-07-23T00:32:20.062Z,6.03
2018-07-23T00:34:47.392Z,3.40
2018-07-23T00:37:14.636Z,4.50
2018-07-23T00:39:41.858Z,6.30
2018-07-23T00:42:09.521Z,4.17
2018-07-23T00:44:36.726Z,3.63
2018-07-23T00:47:03.933Z,4.17
2018-07-23T00:49:31.126Z,4.67
2018-07-23T00:51:58.321Z,3.10
2018-07-23T00:54:25.514Z,4.23
2018-07-23T00:56:53.068Z,3.30
2018-07-23T00:59:20.233Z,7.63
2018-07-23T01:01:47.404Z,3.67
2018-07-23T01:04:14.952Z,6.00
2018-07-23T01:06:42.125Z,3.40
2018-07-23T01:09:10.241Z,20.90
2018-07-23T01:11:41.433Z,5.00
2018-07-23T01:14:08.675Z,3.63
2018-07-23T01:16:35.885Z,5.37
2018-07-23T01:19:03.073Z,6.13
2018-07-23T01:21:30.275Z,5.50
2018-07-23T01:23:57.504Z,7.40
2018-07-23T01:26:25.081Z,6.23
2018-07-23T01:28:52.253Z,3.83
2018-07-23T01:31:19.464Z,8.20
2018-07-23T01:33:46.981Z,5.90
2018-07-23T01:36:14.185Z,4.60
2018-07-23T01:38:41.349Z,9.20
2018-07-23T01:41:08.522Z,6.33
2018-07-23T01:43:35.697Z,3.63
2018-07-23T01:46:03.344Z,6.23
2018-07-23T01:48:30.530Z,3.60
2018-07-23T01:50:57.777Z,6.00
2018-07-23T01:53:25.525Z,4.00
2018-07-23T01:55:52.706Z,4.27
2018-07-23T01:58:19.915Z,6.47
2018-07-23T02:00:49.358Z,5.40
2018-07-23T02:03:16.545Z,5.27
2018-07-23T02:05:43.733Z,5.93
2018-07-23T02:08:11.220Z,3.97
2018-07-23T02:10:38.402Z,4.77
2018-07-23T02:13:05.581Z,3.77
2018-07-23T02:15:32.812Z,6.33
2018-07-23T02:17:59.959Z,3.80
2018-07-23T02:20:27.409Z,4.17
2018-07-23T02:22:54.581Z,5.33
2018-07-23T02:25:21.834Z,4.20
2018-07-23T02:27:49.005Z,3.30
2018-07-23T02:30:16.233Z,6.43
2018-07-23T02:32:43.699Z,4.27
2018-07-23T02:35:10.955Z,6.23
2018-07-23T02:37:38.133Z,4.90
2018-07-23T02:40:05.678Z,4.70
2018-07-23T02:42:33.022Z,6.37
2018-07-23T02:45:00.215Z,8.27
2018-07-23T02:47:27.700Z,5.93
2018-07-23T02:49:54.874Z,7.50
2018-07-23T02:52:22.084Z,5.60
2018-07-23T02:54:49.635Z,6.10
2018-07-23T02:57:16.848Z,6.93
2018-07-23T02:59:44.066Z,6.60
2018-07-23T03:02:11.522Z,9.17
2018-07-23T03:04:38.742Z,7.53
2018-07-23T03:07:05.943Z,9.27
2018-07-23T03:09:33.174Z,7.43
2018-07-23T03:12:00.665Z,5.73
2018-07-23T03:14:27.829Z,5.60
2018-07-23T03:16:55.039Z,6.23
2018-07-23T03:19:24.265Z,7.13
2018-07-23T03:21:51.577Z,9.13
2018-07-23T03:24:18.653Z,5.90
2018-07-23T03:26:45.820Z,6.47
2018-07-23T03:29:17.073Z,7.30
2018-07-23T03:31:44.278Z,7.20
2018-07-23T03:34:11.477Z,9.17
2018-07-23T03:36:38.652Z,7.13
2018-07-23T03:39:07.197Z,4.43
2018-07-23T03:41:34.397Z,7.63
2018-07-23T03:44:01.562Z,6.20
2018-07-23T03:46:28.778Z,14.73
2018-07-23T03:48:56.161Z,8.60
2018-07-23T03:51:23.329Z,7.73
2018-07-23T03:53:50.513Z,7.50
2018-07-23T03:56:17.701Z,7.53
2018-07-23T03:58:44.869Z,7.27
2018-07-23T04:01:12.061Z,9.83
2018-07-23T04:03:39.501Z,9.17
2018-07-23T04:06:06.667Z,8.40
2018-07-23T04:08:33.827Z,9.80
2018-07-23T04:11:01.350Z,10.80
2018-07-23T04:13:28.536Z,12.47
2018-07-23T04:15:55.709Z,8.70
2018-07-23T04:18:22.928Z,14.20
2018-07-23T04:20:50.096Z,8.33
2018-07-23T04:23:17.276Z,8.50
2018-07-23T04:25:44.717Z,12.57
2018-07-23T04:28:11.873Z,10.00
2018-07-23T04:30:39.040Z,9.50
2018-07-23T04:33:06.501Z,8.63
2018-07-23T04:35:33.649Z,14.43
2018-07-23T04:38:00.855Z,7.87
2018-07-23T04:40:27.981Z,17.83
2018-07-23T04:42:55.189Z,12.17
2018-07-23T04:45:22.349Z,10.23
2018-07-23T04:47:49.529Z,8.77
2018-07-23T04:50:16.705Z,13.33
2018-07-23T04:52:43.875Z,12.10
2018-07-23T04:55:11.301Z,11.37
2018-07-23T04:57:38.639Z,9.23
2018-07-23T05:00:05.831Z,10.37
2018-07-23T05:02:35.257Z,9.97
2018-07-23T05:05:02.645Z,11.90
2018-07-23T05:07:29.797Z,15.67
2018-07-23T05:09:57.406Z,13.57
2018-07-23T05:12:24.585Z,13.33
2018-07-23T05:14:51.793Z,18.93
2018-07-23T05:17:18.949Z,13.33
2018-07-23T05:19:46.135Z,19.90
2018-07-23T05:22:13.321Z,13.93
2018-07-23T05:24:40.537Z,14.53
2018-07-23T05:27:08.128Z,12.60
2018-07-23T05:29:35.306Z,14.80
2018-07-23T05:32:02.481Z,10.30
2018-07-23T05:34:29.725Z,15.10
2018-07-23T05:36:56.916Z,14.37
2018-07-23T05:39:24.396Z,12.20
2018-07-23T05:41:51.777Z,14.00
2018-07-23T05:44:19.505Z,14.97
2018-07-23T05:46:47.193Z,13.50
2018-07-23T05:49:14.349Z,12.57
2018-07-23T05:51:41.498Z,12.60
2018-07-23T05:54:08.926Z,8.50
2018-07-23T05:56:36.294Z,16.97
2018-07-23T05:59:03.585Z,8.80
2018-07-23T06:01:30.769Z,14.10
2018-07-23T06:03:58.018Z,12.37
2018-07-23T06:06:25.226Z,9.50
2018-07-23T06:08:52.717Z,6.75
2018-07-23T06:11:19.885Z,7.35
2018-07-23T06:13:47.046Z,4.97
2018-07-23T06:16:14.260Z,7.10
2018-07-23T06:18:41.753Z,8.07
2018-07-23T06:21:08.905Z,8.80
2018-07-23T06:23:36.104Z,7.47
2018-07-23T06:26:03.281Z,12.30
2018-07-23T06:28:30.464Z,8.83
2018-07-23T06:30:57.641Z,9.23
2018-07-23T06:33:24.818Z,18.67
2018-07-23T06:35:52.029Z,20.00
2018-07-23T06:38:19.364Z,15.73
2018-07-23T06:40:46.556Z,10.93
2018-07-23T06:43:15.788Z,14.07
2018-07-23T06:45:42.963Z,15.40
2018-07-23T06:48:10.420Z,13.83
2018-07-23T06:50:37.634Z,17.90
2018-07-23T06:53:05.245Z,12.83
2018-07-23T06:55:32.426Z,10.73
2018-07-23T06:57:59.602Z,15.80
2018-07-23T07:00:26.769Z,12.17
2018-07-23T07:02:53.953Z,20.23
2018-07-23T07:05:23.232Z,13.53
2018-07-23T07:07:50.405Z,17.63
2018-07-23T07:10:23.624Z,11.03
2018-07-23T07:12:50.779Z,14.33
2018-07-23T07:15:17.957Z,11.73
2018-07-23T07:17:45.133Z,14.53
2018-07-23T07:20:12.318Z,10.53
2018-07-23T07:22:39.561Z,11.67
2018-07-23T07:25:06.749Z,14.60
2018-07-23T07:27:34.282Z,14.30
2018-07-23T07:30:01.466Z,11.67
2018-07-23T07:32:28.638Z,12.30
2018-07-23T07:34:57.897Z,10.53
2018-07-23T07:37:25.065Z,13.67
2018-07-23T07:39:52.229Z,12.67
2018-07-23T07:42:19.383Z,22.77
2018-07-23T07:44:46.545Z,10.97
2018-07-23T07:47:16.133Z,14.40
2018-07-23T07:49:43.286Z,12.47
2018-07-23T07:52:10.605Z,13.13
2018-07-23T07:54:37.776Z,10.00
2018-07-23T07:57:04.946Z,14.20
2018-07-23T07:59:32.306Z,11.60
2018-07-23T08:01:59.573Z,19.87
2018-07-23T08:04:26.735Z,11.30
2018-07-23T08:06:54.253Z,12.60
2018-07-23T08:09:21.426Z,9.67
2018-07-23T08:11:48.590Z,12.93
2018-07-23T08:14:15.806Z,9.43
2018-07-23T08:16:42.962Z,16.70
2018-07-23T08:19:10.122Z,13.47
2018-07-23T08:21:37.302Z,14.60
2018-07-23T08:24:04.485Z,9.43
2018-07-23T08:26:31.661Z,13.40
2018-07-23T08:28:58.871Z,9.50
2018-07-23T08:31:30.392Z,11.33
2018-07-23T08:33:57.533Z,9.73
2018-07-23T08:36:24.740Z,11.20
2018-07-23T08:38:51.915Z,10.00
2018-07-23T08:41:19.077Z,11.57
2018-07-23T08:43:50.329Z,17.47
2018-07-23T08:46:17.558Z,15.13
2018-07-23T08:48:44.721Z,11.47
2018-07-23T08:51:11.895Z,10.40
2018-07-23T08:53:39.081Z,7.87
2018-07-23T08:56:06.287Z,14.80
2018-07-23T08:58:33.461Z,8.47
2018-07-23T09:01:00.638Z,9.27
2018-07-23T09:03:27.786Z,12.50
2018-07-23T09:05:54.947Z,16.50
2018-07-23T09:08:22.116Z,12.83
2018-07-23T09:10:49.333Z,14.43
2018-07-23T09:13:16.519Z,7.47
2018-07-23T09:15:43.677Z,21.75
2018-07-23T09:18:10.857Z,10.13
2018-07-23T09:20:38.033Z,11.47
2018-07-23T09:23:05.733Z,12.63
2018-07-23T09:25:38.632Z,10.70
2018-07-23T09:28:05.801Z,18.50
2018-07-23T09:30:38.709Z,11.77
2018-07-23T09:33:05.866Z,12.18
2018-07-23T09:35:33.037Z,12.30
2018-07-23T09:38:06.276Z,9.50
2018-07-23T09:40:33.481Z,8.00
2018-07-23T09:43:00.861Z,5.87
2018-07-23T09:45:28.036Z,6.37
2018-07-23T09:47:55.361Z,6.03
2018-07-23T09:50:22.585Z,14.17
2018-07-23T09:52:49.828Z,4.30
2018-07-23T09:55:16.969Z,6.37
2018-07-23T09:57:44.141Z,9.17
2018-07-23T10:00:11.448Z,10.68
2018-07-23T10:02:38.949Z,7.75
2018-07-23T10:05:06.105Z,5.85
2018-07-23T10:07:33.295Z,4.60
2018-07-23T10:10:00.821Z,4.03
2018-07-23T10:12:32.811Z,7.45
2018-07-23T10:15:00.045Z,5.33
2018-07-23T10:17:27.229Z,3.92
2018-07-23T10:19:54.440Z,7.87
2018-07-23T10:22:21.622Z,8.93
2018-07-23T10:24:48.819Z,9.18
2018-07-23T10:27:16.009Z,5.35
2018-07-23T10:29:43.169Z,7.05
2018-07-23T10:32:10.897Z,7.92
2018-07-23T10:34:38.057Z,5.37
2018-07-23T10:37:05.214Z,5.22
2018-07-23T10:39:32.725Z,6.42
2018-07-23T10:42:01.969Z,4.78
2018-07-23T10:44:29.141Z,5.10
2018-07-23T10:46:56.318Z,5.75
2018-07-23T10:49:24.457Z,3.75
2018-07-23T10:51:51.661Z,6.05
2018-07-23T10:54:18.833Z,4.83
2018-07-23T10:56:45.989Z,5.58
2018-07-23T10:59:13.146Z,6.65
2018-07-23T11:01:40.339Z,7.42
2018-07-23T11:04:07.822Z,11.68
2018-07-23T11:06:34.978Z,9.13
2018-07-23T11:09:02.990Z,7.35
2018-07-23T11:11:34.241Z,3.83
2018-07-23T11:14:01.396Z,5.17
2018-07-23T11:16:28.857Z,7.90
2018-07-23T11:18:56.037Z,5.22
2018-07-23T11:21:23.198Z,5.45
2018-07-23T11:23:50.418Z,5.30
2018-07-23T11:26:17.627Z,8.05
2018-07-23T11:28:45.087Z,7.45
2018-07-23T11:31:12.247Z,8.33
2018-07-23T11:33:39.469Z,8.60
2018-07-23T11:36:07.049Z,7.65
2018-07-23T11:38:34.279Z,5.83
2018-07-23T11:43:45.385Z,8.23
2018-07-23T11:46:24.447Z,7.65
2018-07-23T11:48:39.806Z,8.65
2018-07-23T11:51:07.029Z,4.08
2018-07-23T11:53:34.232Z,6.08
2018-07-23T11:56:01.385Z,8.98
2018-07-23T11:58:32.708Z,6.40
2018-07-23T12:01:00.145Z,7.22
2018-07-23T12:03:27.313Z,7.92
2018-07-23T12:05:54.490Z,8.53
2018-07-23T12:08:21.945Z,6.42
2018-07-23T12:10:49.109Z,7.80
2018-07-23T12:13:16.296Z,4.55
2018-07-23T12:15:47.511Z,6.40
2018-07-23T12:18:14.679Z,6.70
2018-07-23T12:20:43.861Z,7.45
2018-07-23T12:23:11.030Z,5.80
2018-07-23T12:25:38.238Z,3.98
2018-07-23T12:28:05.585Z,6.28
2018-07-23T12:30:32.861Z,4.67
2018-07-23T12:33:00.029Z,8.75
2018-07-23T12:35:27.509Z,6.00
2018-07-23T12:37:54.717Z,13.50
2018-07-23T12:40:22.191Z,18.75
2018-07-23T12:42:49.361Z,11.28
2018-07-23T12:45:16.530Z,14.93
2018-07-23T12:47:45.753Z,12.40
2018-07-23T12:50:12.939Z,9.05
2018-07-23T12:52:40.234Z,17.42
2018-07-23T12:55:07.369Z,24.35
2018-07-23T12:57:35.105Z,10.00
2018-07-23T13:00:02.384Z,8.08
2018-07-23T13:02:29.517Z,9.10
2018-07-23T13:04:56.724Z,8.38
2018-07-23T13:07:26.261Z,8.13
2018-07-23T13:09:53.431Z,5.72
2018-07-23T13:12:20.591Z,4.12
2018-07-23T13:14:48.041Z,8.65
2018-07-23T13:17:15.249Z,4.70
2018-07-23T13:19:42.442Z,6.78
2018-07-23T13:22:09.617Z,6.55
2018-07-23T13:24:36.798Z,4.75
2018-07-23T13:27:03.967Z,6.87
2018-07-23T13:29:31.117Z,5.33
2018-07-23T13:31:58.289Z,4.03
2018-07-23T13:34:25.498Z,7.25
2018-07-23T13:36:52.654Z,2.92
2018-07-23T13:39:19.872Z,9.25
2018-07-23T13:41:47.045Z,4.47
2018-07-23T13:44:14.205Z,4.45
2018-07-23T13:46:41.665Z,4.25
2018-07-23T13:49:08.831Z,3.58
2018-07-23T13:51:36.241Z,8.35
2018-07-23T13:54:03.676Z,7.05
2018-07-23T13:56:30.865Z,3.60
2018-07-23T13:58:58.032Z,2.77
2018-07-23T14:01:25.261Z,2.60
2018-07-23T14:03:52.440Z,4.80
2018-07-23T14:06:19.786Z,5.67
2018-07-23T14:08:49.445Z,3.12
2018-07-23T14:11:16.602Z,5.60
2018-07-23T14:13:43.765Z,4.65
2018-07-23T14:16:10.966Z,4.75
2018-07-23T14:18:38.162Z,7.60
2018-07-23T14:21:05.448Z,3.20
2018-07-23T14:23:32.629Z,6.90
2018-07-23T14:25:59.831Z,3.60
2018-07-23T14:28:31.081Z,4.58
2018-07-23T14:30:58.245Z,3.50
2018-07-23T14:33:25.421Z,3.30
2018-07-23T14:35:52.876Z,4.28
2018-07-23T14:38:20.038Z,4.25
2018-07-23T14:40:47.710Z,3.12
2018-07-23T14:43:14.892Z,4.33
2018-07-23T14:45:42.086Z,4.58
2018-07-23T14:48:09.245Z,7.40
2018-07-23T14:50:36.713Z,4.42
2018-07-23T14:53:03.883Z,7.65
2018-07-23T14:55:33.095Z,4.58
2018-07-23T14:58:00.629Z,3.45
2018-07-23T15:00:27.813Z,3.60
2018-07-23T15:02:54.998Z,3.80
2018-07-23T15:05:22.612Z,8.08
2018-07-23T15:07:49.793Z,3.77
2018-07-23T15:10:16.938Z,3.72
2018-07-23T15:12:44.101Z,4.85
2018-07-23T15:15:11.323Z,5.10
2018-07-23T15:17:38.901Z,4.92
2018-07-23T15:20:06.076Z,2.75
2018-07-23T15:22:33.265Z,5.05
2018-07-23T15:25:00.441Z,5.65
2018-07-23T15:27:27.631Z,3.30
2018-07-23T15:29:54.834Z,4.00
2018-07-23T15:32:21.997Z,2.90
2018-07-23T15:34:49.161Z,3.67
2018-07-23T15:37:18.393Z,2.60
2018-07-23T15:39:45.553Z,5.70
2018-07-23T15:42:12.729Z,3.37
2018-07-23T15:44:40.238Z,2.30
2018-07-23T15:47:07.161Z,3.42
2018-07-23T15:49:34.689Z,5.53
2018-07-23T15:52:01.876Z,7.45
2018-07-23T15:54:29.097Z,3.27
2018-07-23T15:56:56.657Z,10.93
2018-07-23T15:59:23.828Z,7.85
2018-07-23T16:01:51.008Z,3.40
2018-07-23T16:04:18.227Z,3.42
2018-07-23T16:06:45.400Z,5.40
2018-07-23T16:09:13.836Z,4.40
2018-07-23T16:11:41.498Z,2.77
2018-07-23T16:14:08.691Z,3.00
2018-07-23T16:16:36.128Z,4.05
2018-07-23T16:19:03.389Z,5.95
2018-07-23T16:21:30.568Z,3.15
2018-07-23T16:23:57.741Z,5.75
2018-07-23T16:26:25.050Z,4.75
2018-07-23T16:28:52.317Z,3.25
2018-07-23T16:31:19.575Z,2.70
2018-07-23T16:33:46.748Z,4.65
2018-07-23T16:36:13.956Z,4.78
2018-07-23T16:38:41.100Z,3.35
2018-07-23T16:41:08.724Z,2.60
2018-07-23T16:43:35.901Z,3.35
2018-07-23T16:46:03.129Z,20.35
2018-07-23T16:48:30.295Z,4.65
2018-07-23T16:50:57.460Z,7.00
2018-07-23T16:53:24.623Z,3.10
2018-07-23T16:55:51.792Z,10.53
2018-07-23T16:58:18.942Z,4.33
2018-07-23T17:00:46.159Z,3.50
2018-07-23T17:03:13.354Z,3.92
2018-07-23T17:05:44.388Z,6.05
2018-07-23T17:08:11.649Z,5.20
2018-07-23T17:10:38.891Z,4.42
2018-07-23T17:13:06.071Z,4.55
2018-07-23T17:15:33.293Z,2.87
2018-07-23T17:18:00.525Z,3.67
2018-07-23T17:20:27.637Z,8.38
2018-07-23T17:22:54.850Z,3.83
2018-07-23T17:25:28.066Z,3.50
2018-07-23T17:27:55.220Z,3.08
2018-07-23T17:30:22.381Z,4.90
2018-07-23T17:32:49.611Z,3.30
2018-07-23T17:35:17.097Z,4.75
2018-07-23T17:37:44.252Z,4.87
2018-07-23T17:40:11.400Z,2.98
2018-07-23T17:42:38.622Z,5.62
2018-07-23T17:45:05.931Z,3.35
2018-07-23T17:47:33.244Z,4.62
2018-07-23T17:50:00.458Z,2.47
2018-07-23T17:52:27.707Z,3.10
2018-07-23T17:54:54.899Z,6.08
2018-07-23T17:57:22.196Z,2.52
2018-07-23T17:59:49.390Z,3.05
2018-07-23T18:02:16.545Z,6.87
2018-07-23T18:04:44.612Z,7.33
2018-07-23T18:07:11.808Z,4.37
2018-07-23T18:09:38.974Z,4.28
2018-07-23T18:12:06.589Z,12.93
2018-07-23T18:14:33.856Z,4.25
2018-07-23T18:17:01.029Z,3.47
2018-07-23T18:19:28.221Z,3.75
2018-07-23T18:21:55.818Z,3.27
2018-07-23T18:24:23.029Z,3.45
2018-07-23T18:26:50.217Z,7.37
2018-07-23T18:29:17.419Z,5.47
2018-07-23T18:31:44.681Z,2.58
2018-07-23T18:34:13.944Z,11.35
2018-07-23T18:36:41.134Z,2.95
2018-07-23T18:39:10.301Z,5.97
2018-07-23T18:41:37.636Z,4.53
2018-07-23T18:44:05.141Z,2.65
2018-07-23T18:46:32.333Z,2.70
2018-07-23T18:49:26.263Z,2.98
2018-07-23T18:51:54.093Z,6.10
2018-07-23T18:54:22.484Z,2.55
2018-07-23T18:56:52.178Z,2.52
2018-07-23T18:59:19.400Z,6.05
2018-07-23T19:01:47.724Z,6.30
2018-07-23T19:04:15.313Z,2.47
2018-07-23T19:06:42.513Z,5.78
2018-07-23T19:09:12.519Z,8.05
2018-07-23T19:11:40.659Z,5.20
2018-07-23T19:14:07.837Z,2.70
2018-07-23T19:16:35.056Z,8.05
2018-07-23T19:19:06.966Z,2.65
2018-07-23T19:21:34.201Z,3.75
2018-07-23T19:24:01.385Z,2.95
2018-07-23T19:26:29.858Z,4.67
2018-07-23T19:28:57.174Z,5.25
2018-07-23T19:31:25.447Z,2.65
2018-07-23T19:33:52.932Z,3.77
2018-07-23T19:36:20.117Z,6.60
2018-07-23T19:38:47.304Z,4.30
2018-07-23T19:41:14.830Z,6.03
2018-07-23T19:43:42.005Z,5.35
2018-07-23T19:46:09.190Z,5.97
2018-07-23T19:48:37.297Z,2.75
2018-07-23T19:51:04.499Z,4.50
2018-07-23T19:53:31.721Z,3.62
2018-07-23T19:56:02.909Z,3.33
2018-07-23T19:58:34.136Z,4.47
2018-07-23T20:01:01.388Z,2.42
2018-07-23T20:03:28.653Z,3.05
2018-07-23T20:05:55.815Z,5.45
2018-07-23T20:08:23.074Z,6.28
2018-07-23T20:10:50.284Z,3.00
2018-07-23T20:13:17.479Z,8.33
2018-07-23T20:15:44.656Z,3.83
2018-07-23T20:18:17.916Z,4.47
2018-07-23T20:20:45.356Z,3.35
2018-07-23T20:23:12.574Z,4.78
2018-07-23T20:25:39.753Z,2.45
2018-07-23T20:28:11.040Z,5.08
2018-07-23T20:30:38.218Z,3.35
2018-07-23T20:33:05.472Z,5.65
2018-07-23T20:35:33.125Z,3.77
2018-07-23T20:38:00.456Z,3.58
2018-07-23T20:40:27.640Z,3.08
2018-07-23T20:42:55.781Z,3.27
2018-07-23T20:45:22.944Z,4.67
2018-07-23T20:47:50.113Z,3.67
2018-07-23T20:50:17.585Z,4.12
2018-07-23T20:52:44.812Z,6.92
2018-07-23T20:55:11.981Z,8.08
2018-07-23T20:57:39.516Z,6.55
2018-07-23T21:00:07.313Z,3.35
2018-07-23T21:02:34.529Z,4.50
2018-07-23T21:05:03.739Z,4.58
2018-07-23T21:07:31.225Z,3.72
2018-07-23T21:09:58.368Z,5.05
2018-07-23T21:12:26.384Z,5.25
2018-07-23T21:14:53.679Z,7.60
2018-07-23T21:17:20.792Z,3.77
2018-07-23T21:19:48.028Z,3.47
2018-07-23T21:22:15.241Z,6.60
2018-07-23T21:24:42.392Z,6.40
2018-07-23T21:27:09.545Z,3.87
2018-07-23T21:29:36.777Z,12.23
2018-07-23T21:32:03.959Z,4.25
2018-07-23T21:34:31.200Z,5.25
2018-07-23T21:36:58.364Z,4.40
2018-07-23T21:39:25.588Z,4.10
2018-07-23T21:41:52.773Z,5.22
2018-07-23T21:44:19.947Z,3.92
2018-07-23T21:46:47.159Z,5.37
2018-07-23T21:49:14.345Z,7.50
2018-07-23T21:51:41.576Z,4.62
2018-07-23T21:54:08.775Z,3.87
2018-07-23T21:56:35.984Z,5.55
2018-07-23T21:59:03.164Z,8.88
2018-07-23T22:01:30.346Z,4.50
2018-07-23T22:03:57.497Z,5.83
2018-07-23T22:06:24.720Z,5.28
2018-07-23T22:08:53.890Z,3.83
2018-07-23T22:11:21.069Z,7.10
2018-07-23T22:13:48.225Z,3.40
2018-07-23T22:16:15.380Z,3.93
2018-07-23T22:18:42.563Z,3.90
2018-07-23T22:21:10.456Z,4.17
2018-07-23T22:23:37.676Z,5.70
2018-07-23T22:26:05.422Z,3.45
2018-07-23T22:28:32.594Z,5.83
2018-07-23T22:30:59.868Z,3.70
2018-07-23T22:33:27.324Z,4.57
2018-07-23T22:35:54.494Z,6.42
2018-07-23T22:38:21.796Z,5.28
2018-07-23T22:40:48.968Z,4.22
2018-07-23T22:43:16.144Z,10.07
2018-07-23T22:45:45.465Z,8.83
2018-07-23T22:48:12.629Z,3.80
2018-07-23T22:50:39.844Z,4.47
2018-07-23T22:53:07.000Z,6.10
2018-07-23T22:55:35.000Z,6.23
2018-07-23T22:58:02.159Z,5.50
2018-07-23T23:00:29.334Z,3.67
2018-07-23T23:02:56.568Z,6.70
2018-07-23T23:05:25.770Z,8.13
2018-07-23T23:07:52.941Z,6.07
2018-07-23T23:10:20.132Z,5.73
2018-07-23T23:12:47.396Z,4.10
2018-07-23T23:15:14.876Z,5.70
2018-07-23T23:17:42.056Z,4.23
2018-07-23T23:20:09.384Z,4.00
2018-07-23T23:22:36.752Z,3.80
2018-07-23T23:25:03.952Z,4.63
2018-07-23T23:27:31.130Z,4.50
2018-07-23T23:29:58.304Z,5.97
2018-07-23T23:32:25.442Z,3.37
2018-07-23T23:34:52.600Z,7.60
2018-07-23T23:37:19.768Z,3.73
2018-07-23T23:39:46.928Z,4.40
2018-07-23T23:42:14.132Z,3.80
2018-07-23T23:44:41.298Z,4.07
2018-07-23T23:47:08.725Z,6.20
2018-07-23T23:49:35.897Z,4.07
2018-07-23T23:52:03.072Z,4.93
2018-07-23T23:54:30.621Z,9.07
2018-07-23T23:56:57.868Z,8.47
2018-07-23T23:59:25.057Z,8.50
